createdAt,value
2019-04-05T00:01:59.844Z,2.87
2019-04-05T00:07:06.048Z,3.47
2019-04-05T00:12:12.097Z,3.60
2019-04-05T00:17:17.722Z,2.97
2019-04-05T00:22:23.801Z,3.03
2019-04-05T00:27:29.995Z,3.07
2019-04-05T00:32:35.737Z,2.93
2019-04-05T00:37:41.560Z,3.30
2019-04-05T00:42:47.176Z,3.53
2019-04-05T00:47:53.849Z,2.83
2019-04-05T00:52:59.620Z,2.87
2019-04-05T00:58:05.589Z,3.30
2019-04-05T01:03:13.726Z,3.23
2019-04-05T01:08:19.769Z,2.83
2019-04-05T01:13:26.181Z,2.93
2019-04-05T01:18:31.818Z,3.20
2019-04-05T01:23:37.789Z,3.33
2019-04-05T01:28:44.599Z,3.10
2019-04-05T01:33:50.677Z,3.30
2019-04-05T01:38:56.347Z,3.27
2019-04-05T01:44:02.378Z,3.10
2019-04-05T01:49:08.262Z,3.03
2019-04-05T01:54:14.163Z,2.90
2019-04-05T01:59:19.990Z,2.83
2019-04-05T02:04:26.044Z,2.93
2019-04-05T02:09:32.208Z,3.30
2019-04-05T02:14:38.067Z,3.40
2019-04-05T02:19:43.791Z,3.47
2019-04-05T02:24:49.370Z,3.00
2019-04-05T02:29:55.458Z,3.40
2019-04-05T02:35:01.381Z,3.50
2019-04-05T02:40:11.773Z,3.10
2019-04-05T02:45:19.031Z,3.40
2019-04-05T02:50:28.112Z,2.93
2019-04-05T02:55:35.735Z,2.70
2019-04-05T03:00:42.025Z,2.90
2019-04-05T03:05:48.262Z,3.40
2019-04-05T03:11:06.654Z,2.77
2019-04-05T03:16:17.542Z,3.53
2019-04-05T03:21:26.513Z,3.07
2019-04-05T03:26:35.241Z,3.77
2019-04-05T03:31:41.575Z,3.43
2019-04-05T03:36:51.461Z,3.07
2019-04-05T03:41:56.566Z,2.87
2019-04-05T03:47:02.946Z,3.73
2019-04-05T03:52:09.441Z,3.13
2019-04-05T03:57:16.301Z,3.70
2019-04-05T04:02:23.673Z,3.73
2019-04-05T04:07:29.903Z,3.90
2019-04-05T04:12:36.096Z,3.60
2019-04-05T04:17:43.229Z,3.27
2019-04-05T04:22:49.222Z,3.30
2019-04-05T04:27:54.966Z,4.07
2019-04-05T04:33:01.978Z,3.77
2019-04-05T04:38:28.031Z,3.37
2019-04-05T04:43:33.988Z,3.47
2019-04-05T04:48:41.012Z,3.80
2019-04-05T04:53:58.241Z,3.80
2019-04-05T04:59:04.163Z,3.90
2019-04-05T05:04:10.363Z,4.20
2019-04-05T05:09:16.758Z,3.33
2019-04-05T05:14:23.267Z,3.50
2019-04-05T05:19:29.576Z,4.27
2019-04-05T05:24:35.846Z,4.70
2019-04-05T05:29:41.812Z,4.50
2019-04-05T05:34:47.638Z,4.60
2019-04-05T05:39:53.381Z,4.07
2019-04-05T05:44:59.123Z,4.63
2019-04-05T05:50:05.352Z,4.47
2019-04-05T05:55:12.974Z,4.00
2019-04-05T06:00:20.197Z,4.90
2019-04-05T06:05:25.877Z,4.07
2019-04-05T06:10:31.704Z,4.77
2019-04-05T06:15:37.782Z,4.73
2019-04-05T06:20:44.329Z,5.47
2019-04-05T06:25:50.094Z,4.53
2019-04-05T06:30:55.840Z,3.50
2019-04-05T06:36:01.909Z,4.77
2019-04-05T06:41:07.812Z,3.90
2019-04-05T06:46:13.414Z,3.90
2019-04-05T06:51:19.493Z,4.20
2019-04-05T06:56:25.533Z,5.13
2019-04-05T07:01:31.645Z,5.17
2019-04-05T07:06:37.467Z,4.53
2019-04-05T07:11:43.273Z,4.33
2019-04-05T07:16:49.355Z,4.50
2019-04-05T07:21:55.201Z,4.70
2019-04-05T07:27:01.077Z,4.10
2019-04-05T07:32:06.950Z,4.47
2019-04-05T07:37:12.817Z,4.83
2019-04-05T07:42:19.235Z,5.07
2019-04-05T07:47:25.282Z,3.90
2019-04-05T07:52:31.221Z,3.93
2019-04-05T07:57:37.957Z,4.13
2019-04-05T08:02:43.789Z,3.63
2019-04-05T08:07:51.491Z,4.10
2019-04-05T08:12:57.974Z,4.40
2019-04-05T08:18:05.867Z,3.50
2019-04-05T08:23:12.673Z,4.40
2019-04-05T08:28:19.900Z,3.97
2019-04-05T08:33:26.547Z,5.10
2019-04-05T08:38:32.049Z,4.83
2019-04-05T08:43:37.674Z,4.87
2019-04-05T08:48:43.854Z,4.70
2019-04-05T08:53:49.692Z,3.62
2019-04-05T08:58:55.508Z,4.70
2019-04-05T09:04:01.689Z,4.55
2019-04-05T09:09:09.997Z,3.90
2019-04-05T09:14:16.008Z,2.80
2019-04-05T09:19:24.181Z,3.92
2019-04-05T09:24:31.117Z,3.98
2019-04-05T09:29:36.994Z,4.08
2019-04-05T09:34:42.610Z,5.35
2019-04-05T09:39:48.389Z,4.60
2019-04-05T09:44:54.061Z,4.33
2019-04-05T09:49:59.782Z,4.75
2019-04-05T09:55:05.701Z,4.05
2019-04-05T10:00:17.598Z,3.92
2019-04-05T10:05:23.414Z,4.17
2019-04-05T10:10:29.302Z,4.30
2019-04-05T10:15:34.960Z,3.62
2019-04-05T10:20:41.122Z,3.58
2019-04-05T10:25:47.256Z,3.75
2019-04-05T10:30:54.656Z,3.60
2019-04-05T10:36:01.659Z,3.72
2019-04-05T10:41:07.685Z,3.30
2019-04-05T10:46:13.658Z,3.37
2019-04-05T10:51:19.493Z,2.92
2019-04-05T10:56:25.307Z,3.52
2019-04-05T11:01:31.176Z,3.55
2019-04-05T11:06:37.192Z,2.87
2019-04-05T11:11:43.169Z,2.67
2019-04-05T11:16:58.331Z,3.12
2019-04-05T11:21:58.336Z,3.17
2019-04-05T11:27:06.539Z,2.45
2019-04-05T11:32:11.651Z,3.15
2019-04-05T11:37:19.072Z,3.30
2019-04-05T11:42:27.570Z,2.75
2019-04-05T11:47:34.040Z,2.85
2019-04-05T11:52:39.880Z,3.10
2019-04-05T11:57:45.719Z,2.60
2019-04-05T12:02:56.498Z,2.72
2019-04-05T12:08:02.229Z,3.12
2019-04-05T12:13:08.377Z,2.62
2019-04-05T12:18:17.875Z,2.58
2019-04-05T12:23:21.618Z,3.50
2019-04-05T12:28:27.392Z,2.70
2019-04-05T12:33:33.138Z,3.05
2019-04-05T12:38:38.953Z,2.85
2019-04-05T12:43:44.881Z,2.85
2019-04-05T12:48:52.597Z,2.95
2019-04-05T12:53:58.505Z,2.77
2019-04-05T12:59:04.269Z,2.77
2019-04-05T13:04:10.316Z,2.95
2019-04-05T13:09:16.106Z,2.45
2019-04-05T13:14:22.056Z,2.87
2019-04-05T13:19:28.507Z,3.52
2019-04-05T13:24:35.347Z,3.67
2019-04-05T13:29:41.276Z,2.83
2019-04-05T13:34:47.024Z,2.80
2019-04-05T13:39:52.747Z,2.72
2019-04-05T13:44:58.801Z,2.60
2019-04-05T13:50:05.135Z,2.75
2019-04-05T13:55:11.507Z,2.85
2019-04-05T14:00:18.537Z,3.15
2019-04-05T14:05:24.449Z,2.83
2019-04-05T14:10:30.624Z,3.22
2019-04-05T14:15:36.368Z,3.00
2019-04-05T14:20:42.247Z,3.58
2019-04-05T14:25:48.185Z,3.33
2019-04-05T14:30:54.027Z,3.47
2019-04-05T14:35:59.724Z,3.25
2019-04-05T14:41:05.403Z,3.20
2019-04-05T14:46:11.258Z,2.95
2019-04-05T14:51:17.237Z,3.45
2019-04-05T14:56:23.053Z,3.23
2019-04-05T15:01:30.713Z,3.30
2019-04-05T15:06:36.826Z,2.87
2019-04-05T15:11:42.735Z,2.73
2019-04-05T15:16:48.247Z,3.33
2019-04-05T15:22:05.047Z,2.93
2019-04-05T15:27:02.784Z,3.33
2019-04-05T15:32:08.732Z,3.53
2019-04-05T15:37:16.146Z,3.50
2019-04-05T15:42:22.210Z,4.20
2019-04-05T15:47:27.973Z,3.53
2019-04-05T15:52:33.679Z,4.33
2019-04-05T15:57:39.650Z,3.13
2019-04-05T16:02:47.252Z,3.50
2019-04-05T16:07:53.578Z,2.67
2019-04-05T16:12:59.487Z,3.47
2019-04-05T16:18:05.352Z,3.10
2019-04-05T16:23:11.535Z,3.33
2019-04-05T16:28:18.911Z,3.03
2019-04-05T16:33:24.896Z,3.20
2019-04-05T16:38:30.829Z,3.57
2019-04-05T16:43:36.627Z,3.30
2019-04-05T16:48:42.505Z,3.13
2019-04-05T16:54:01.480Z,3.50
2019-04-05T16:59:08.829Z,3.80
2019-04-05T17:04:14.905Z,3.00
2019-04-05T17:09:20.633Z,3.77
2019-04-05T17:14:26.404Z,3.17
2019-04-05T17:19:32.021Z,3.37
2019-04-05T17:24:39.160Z,4.33
2019-04-05T17:29:45.263Z,3.13
2019-04-05T17:34:51.321Z,3.30
2019-04-05T17:39:57.089Z,4.30
2019-04-05T17:45:03.016Z,3.97
2019-04-05T17:50:11.063Z,4.43
2019-04-05T17:55:16.977Z,3.77
2019-04-05T18:00:23.928Z,3.70
2019-04-05T18:05:29.519Z,3.50
2019-04-05T18:10:35.559Z,3.80
2019-04-05T18:15:51.804Z,3.63
2019-04-05T18:20:48.785Z,4.27
2019-04-05T18:25:57.644Z,3.53
2019-04-05T18:31:03.398Z,3.47
2019-04-05T18:36:10.614Z,3.90
2019-04-05T18:41:17.833Z,4.53
2019-04-05T18:46:23.689Z,3.07
2019-04-05T18:51:29.664Z,4.10
2019-04-05T18:56:35.747Z,3.87
2019-04-05T19:01:41.626Z,3.63
2019-04-05T19:06:47.693Z,3.80
2019-04-05T19:11:53.178Z,3.70
2019-04-05T19:16:59.369Z,3.80
2019-04-05T19:22:06.406Z,3.90
2019-04-05T19:27:12.390Z,3.40
2019-04-05T19:52:48.397Z,3.47
2019-04-05T19:57:54.365Z,3.77
2019-04-05T20:03:00.452Z,3.70
2019-04-05T20:08:06.370Z,3.80
2019-04-05T20:13:12.396Z,4.03
2019-04-05T20:18:18.314Z,3.13
2019-04-05T20:23:24.259Z,3.17
2019-04-05T20:28:30.414Z,3.27
2019-04-05T20:33:38.148Z,3.47
2019-04-05T20:38:44.089Z,3.60
2019-04-05T20:43:49.932Z,4.07
2019-04-05T20:49:03.871Z,3.73
2019-04-05T20:54:09.941Z,4.00
2019-04-05T20:59:24.311Z,4.60
2019-04-05T21:04:32.655Z,4.20
2019-04-05T21:09:44.246Z,4.43
2019-04-05T21:14:51.882Z,3.63
2019-04-05T21:19:57.673Z,4.00
2019-04-05T21:25:03.465Z,4.43
2019-04-05T21:30:09.550Z,4.20
2019-04-05T21:35:15.398Z,4.43
2019-04-05T21:40:21.309Z,4.17
2019-04-05T21:45:26.928Z,5.17
2019-04-05T21:50:33.364Z,4.57
2019-04-05T21:55:39.094Z,5.30
2019-04-05T22:00:50.601Z,4.73
2019-04-05T22:05:58.033Z,4.70
2019-04-05T22:11:03.792Z,5.07
2019-04-05T22:16:09.718Z,5.07
2019-04-05T22:21:15.850Z,5.70
2019-04-05T22:26:21.763Z,5.37
2019-04-05T22:31:27.408Z,4.80
2019-04-05T22:36:34.196Z,4.57
2019-04-05T22:41:39.817Z,5.03
2019-04-05T22:46:45.889Z,4.17
2019-04-05T22:51:51.540Z,4.53
2019-04-05T22:56:57.386Z,5.27
2019-04-05T23:02:03.158Z,4.27
2019-04-05T23:07:10.090Z,4.70
2019-04-05T23:12:15.876Z,4.10
2019-04-05T23:17:21.655Z,4.73
2019-04-05T23:22:27.310Z,4.20
2019-04-05T23:27:32.983Z,3.90
2019-04-05T23:32:38.888Z,3.23
2019-04-05T23:37:44.678Z,2.90
2019-04-05T23:42:50.779Z,2.90
2019-04-05T23:47:57.784Z,2.40
2019-04-05T23:53:03.274Z,2.23
2019-04-05T23:58:09.077Z,2.13
